Time;durP1;ratioP1;P1;durP2;ratioP2;P2;SDS_P1;SDS_P2;PMS_P1;PMS_P2;Temp;Humidity;BMP_temperature;BMP_pressure;BME280_temperature;BME280_humidity;BME280_pressure;Samples;Min_cycle;Max_cycle;Signal;HPM_P1;HPM_P2
2022/08/04 00:01:16;;;;;;;2.97;1.10;;;;;;;24.09;55.83;100010.41;5030170;28;20063;-83
2022/08/04 00:04:01;;;;;;;2.60;0.90;;;;;;;24.03;55.79;100009.34;5033172;28;20042;-82
2022/08/04 00:06:39;;;;;;;3.97;0.90;;;;;;;23.97;56.59;100020.16;5015845;28;20033;-83
2022/08/04 00:09:15;;;;;;;4.22;1.23;;;;;;;23.90;56.55;100011.97;5015407;28;20061;-81
2022/08/04 00:11:45;;;;;;;;;;;;;;;23.91;56.46;100011.53;5016039;28;20517;-83
2022/08/04 00:14:16;;;;;;;3.20;0.90;;;;;;;23.91;56.52;100005.97;5033501;28;19909;-83
2022/08/04 00:16:46;;;;;;;2.78;1.10;;;;;;;23.83;57.07;100010.09;5033428;28;20032;-83
2022/08/04 00:19:39;;;;;;;3.10;1.10;;;;;;;23.77;57.44;100005.47;5014868;28;20120;-83
2022/08/04 00:22:12;;;;;;;3.33;1.13;;;;;;;23.60;58.50;100005.38;5033046;28;20026;-83
2022/08/04 00:24:39;;;;;;;3.05;1.20;;;;;;;23.45;59.03;99994.94;5033463;28;20040;-83
2022/08/04 00:27:06;;;;;;;5.97;0.93;;;;;;;23.38;59.48;99995.84;5033259;28;20090;-83
2022/08/04 00:29:33;;;;;;;2.63;0.98;;;;;;;23.34;59.87;99997.91;5032989;28;20041;-83
2022/08/04 00:32:02;;;;;;;4.68;1.60;;;;;;;23.29;59.88;99998.38;5015352;28;20353;-83
2022/08/04 00:34:30;;;;;;;5.13;1.75;;;;;;;23.33;59.36;99997.13;5032729;28;20461;-82
2022/08/04 00:36:58;;;;;;;4.93;1.17;;;;;;;23.35;59.16;99991.16;5033169;28;20029;-84
2022/08/04 00:39:31;;;;;;;10.20;1.27;;;;;;;23.45;58.39;99995.72;5015486;28;20037;-84
2022/08/04 00:42:02;;;;;;;3.22;1.05;;;;;;;23.63;57.54;99990.63;5033193;28;20026;-83
2022/08/04 00:44:28;;;;;;;3.83;1.10;;;;;;;23.68;57.43;99989.34;5032937;28;20077;-84
2022/08/04 00:47:12;;;;;;;3.20;1.00;;;;;;;23.74;57.10;99995.22;5033094;28;20064;-84
2022/08/04 00:49:56;;;;;;;3.70;1.25;;;;;;;23.81;56.81;99989.50;5015506;28;20675;-84
2022/08/04 00:52:30;;;;;;;4.57;1.10;;;;;;;23.78;56.96;99973.69;5033158;28;20436;-84
2022/08/04 00:55:03;;;;;;;2.47;0.88;;;;;;;23.73;57.13;99976.97;5032884;28;20036;-83
2022/08/04 00:57:37;;;;;;;3.00;0.75;;;;;;;23.65;57.43;99979.88;5015462;28;20465;-83
2022/08/04 01:00:10;;;;;;;4.38;0.98;;;;;;;23.65;57.20;99985.44;5032849;28;20037;-83
2022/08/04 01:05:27;;;;;;;3.42;1.08;;;;;;;23.65;57.55;99976.31;5172043;23;20054;-83
2022/08/04 01:08:21;;;;;;;7.30;1.23;;;;;;;23.60;57.56;99980.38;4997633;28;20043;-83
2022/08/04 01:10:58;;;;;;;3.63;1.42;;;;;;;23.67;57.46;99976.66;4962139;28;20369;-84
2022/08/04 01:13:39;;;;;;;3.05;1.00;;;;;;;23.61;57.83;99968.06;4997126;28;20027;-84
2022/08/04 01:16:15;;;;;;;2.60;1.30;;;;;;;23.64;57.28;99975.53;4979915;28;20465;-85
2022/08/04 01:18:58;;;;;;;4.32;1.08;;;;;;;23.68;57.06;99967.13;4979730;28;20026;-84
2022/08/04 01:21:42;;;;;;;3.28;0.88;;;;;;;23.75;56.64;99964.22;4979865;28;20035;-84
2022/08/04 01:24:23;;;;;;;4.43;1.00;;;;;;;23.64;57.17;99971.97;4997173;28;20038;-84
2022/08/04 01:27:25;;;;;;;2.55;1.00;;;;;;;23.48;57.85;99961.53;4996995;28;20436;-84
2022/08/04 01:29:54;;;;;;;2.22;0.88;;;;;;;23.40;58.27;99960.09;4997251;28;20424;-84
2022/08/04 01:32:24;;;;;;;2.28;0.88;;;;;;;23.34;58.44;99953.44;4979536;28;20034;-84
2022/08/04 01:35:43;;;;;;;6.18;1.05;;;;;;;23.35;58.25;99952.25;4996875;28;20034;-83
2022/08/04 01:38:15;;;;;;;2.80;0.80;;;;;;;23.36;58.22;99945.50;4955846;29;20043;-83
2022/08/04 01:40:44;;;;;;;2.83;1.15;;;;;;;23.31;58.71;99945.97;4989886;28;20042;-82
2022/08/04 01:43:15;;;;;;;3.58;1.20;;;;;;;23.31;58.69;99940.41;4997518;28;20487;-84
2022/08/04 01:45:42;;;;;;;2.65;1.17;;;;;;;23.37;58.40;99941.50;4997994;28;20030;-84
2022/08/04 01:48:11;;;;;;;5.07;1.40;;;;;;;23.31;58.54;99932.06;4997333;28;20030;-84
2022/08/04 01:50:41;;;;;;;4.60;1.45;;;;;;;23.31;58.72;99932.06;4979441;28;20022;-83
2022/08/04 01:53:07;;;;;;;3.20;1.15;;;;;;;23.28;59.24;99930.16;4996953;28;20037;-84
2022/08/04 01:55:34;;;;;;;3.15;0.90;;;;;;;23.26;58.75;99927.03;4996426;28;20023;-84
2022/08/04 01:58:00;;;;;;;6.80;1.60;;;;;;;23.13;59.68;99926.06;4996500;28;20097;-84
2022/08/04 02:00:27;;;;;;;3.42;0.98;;;;;;;22.94;60.36;99922.84;4996823;28;20069;-83
2022/08/04 02:02:57;;;;;;;4.00;1.10;;;;;;;22.88;60.39;99916.19;4996628;28;20038;-83
2022/08/04 02:05:25;;;;;;;2.95;1.08;;;;;;;22.89;60.69;99915.00;5016568;28;20448;-84
2022/08/04 02:08:17;;;;;;;2.40;0.90;;;;;;;22.75;61.18;99915.19;5035689;28;20030;-84
2022/08/04 02:11:09;;;;;;;6.10;0.90;;;;;;;22.68;61.42;99910.56;5035829;28;20034;-83
2022/08/04 02:13:44;;;;;;;4.93;1.15;;;;;;;22.66;61.84;99909.41;5035791;28;20030;-83
2022/08/04 02:16:38;;;;;;;3.15;0.98;;;;;;;22.58;62.29;99916.28;5034528;28;20037;-83
2022/08/04 02:19:31;;;;;;;3.58;1.00;;;;;;;22.39;63.16;99910.22;5035611;28;20025;-83
2022/08/04 02:22:05;;;;;;;2.92;1.05;;;;;;;22.41;63.48;99907.81;5017632;28;20498;-84
2022/08/04 02:24:31;;;;;;;4.97;1.17;;;;;;;22.37;63.45;99903.53;5035195;28;20065;-83
2022/08/04 02:27:00;;;;;;;2.60;1.10;;;;;;;22.36;63.51;99902.75;5017884;28;20073;-83
2022/08/04 02:29:42;;;;;;;2.35;1.10;;;;;;;22.29;63.92;99902.06;5035376;28;20025;-82
2022/08/04 02:32:38;;;;;;;3.15;1.00;;;;;;;22.29;63.71;99902.84;5017609;28;20159;-84
2022/08/04 02:35:26;;;;;;;4.90;1.37;;;;;;;22.28;63.45;99894.94;5033911;28;20041;-84
2022/08/04 02:38:19;;;;;;;2.60;1.05;;;;;;;22.24;63.35;99897.78;5035348;28;20022;-84
2022/08/04 02:40:46;;;;;;;2.85;0.80;;;;;;;22.27;63.51;99896.94;5024345;28;20046;-83
2022/08/04 02:43:17;;;;;;;3.42;0.98;;;;;;;22.21;63.55;99896.63;5017095;28;20041;-83
2022/08/04 02:45:45;;;;;;;2.97;1.27;;;;;;;22.37;63.00;99896.00;5034811;28;20033;-83
2022/08/04 02:48:11;;;;;;;2.13;0.85;;;;;;;22.49;62.81;99880.72;5034950;28;20033;-83
2022/08/04 02:50:42;;;;;;;5.80;0.98;;;;;;;22.56;62.44;99888.19;5034684;28;20033;-83
2022/08/04 02:53:12;;;;;;;3.97;1.10;;;;;;;22.52;62.27;99886.25;5034822;28;20064;-83
2022/08/04 02:55:40;;;;;;;2.92;1.00;;;;;;;22.52;62.38;99889.03;5034847;28;20029;-83
2022/08/04 02:58:07;;;;;;;2.63;0.98;;;;;;;22.49;62.51;99892.63;5034971;28;20069;-82
2022/08/04 03:00:33;;;;;;;6.88;1.30;;;;;;;22.57;62.24;99882.19;5034622;28;20034;-84
2022/08/04 03:03:32;;;;;;;2.67;0.98;;;;;;;22.34;63.26;99882.97;5034217;28;20142;-83
2022/08/04 03:06:10;;;;;;;3.33;1.40;;;;;;;22.41;62.96;99880.06;5034662;28;20391;-83
2022/08/04 03:08:41;;;;;;;3.78;1.20;;;;;;;22.37;63.26;99884.13;5034552;28;20475;-83
2022/08/04 03:11:37;;;;;;;4.55;1.25;;;;;;;22.20;63.95;99874.88;5034451;28;20061;-83
2022/08/04 03:14:37;;;;;;;2.70;0.90;;;;;;;22.02;64.82;99871.53;5016575;28;20041;-84
2022/08/04 03:17:21;;;;;;;5.28;1.20;;;;;;;21.91;65.13;99869.69;4991941;28;20060;-83
2022/08/04 03:20:08;;;;;;;4.90;1.92;;;;;;;21.90;65.17;99868.13;5035086;28;20039;-86
2022/08/04 03:22:57;;;;;;;4.53;1.48;;;;;;;21.87;65.74;99866.19;5034642;28;20029;-85
2022/08/04 03:25:48;;;;;;;3.60;1.13;;;;;;;21.82;66.06;99863.88;5034271;28;20086;-82
2022/08/04 03:28:39;;;;;;;5.85;1.30;;;;;;;21.92;65.59;99864.94;5015422;28;20428;-81
2022/08/04 03:31:25;;;;;;;5.07;1.85;;;;;;;21.83;65.97;99862.66;5034227;28;20029;-81
2022/08/04 03:34:22;;;;;;;5.32;1.60;;;;;;;21.80;66.35;99862.72;5033947;28;20036;-81
2022/08/04 03:37:02;;;;;;;3.50;1.25;;;;;;;21.83;65.86;99865.44;5034008;28;20033;-82
2022/08/04 03:39:51;;;;;;;3.50;1.25;;;;;;;21.83;66.02;99865.44;5016277;28;20045;-82
2022/08/04 03:42:43;;;;;;;4.75;1.20;;;;;;;21.84;66.43;99864.28;5034272;28;20026;-83
2022/08/04 03:45:25;;;;;;;2.95;1.20;;;;;;;21.52;66.98;99872.22;5034427;28;20038;-86
2022/08/04 03:48:18;;;;;;;3.35;1.20;;;;;;;21.61;67.17;99864.94;5034576;28;20029;-87
2022/08/04 03:54:14;;;;;;;5.28;1.65;;;;;;;21.52;68.08;99864.69;5036183;28;20040;-88
2022/08/04 03:57:18;;;;;;;3.88;1.33;;;;;;;21.45;68.20;99861.19;5034517;28;20033;-85
2022/08/04 04:00:01;;;;;;;2.05;0.90;;;;;;;21.63;67.04;99859.00;5034778;28;20084;-87
2022/08/04 04:02:54;;;;;;;3.10;1.08;;;;;;;21.82;65.99;99852.00;5035868;28;20033;-86
2022/08/04 04:05:29;;;;;;;3.72;1.20;;;;;;;21.78;66.33;99851.28;5017557;28;20052;-87
2022/08/04 04:08:16;;;;;;;6.20;1.40;;;;;;;21.82;66.45;99857.53;5015187;28;20030;-86
2022/08/04 04:10:44;;;;;;;3.08;1.40;;;;;;;21.74;67.08;99853.31;5015163;28;20471;-86
2022/08/04 04:13:32;;;;;;;4.50;1.50;;;;;;;21.55;68.51;99854.75;5015160;28;20041;-86
2022/08/04 04:16:06;;;;;;;4.63;1.25;;;;;;;21.36;69.36;99852.63;5014699;28;20041;-87
2022/08/04 04:19:31;;;;;;;4.88;1.23;;;;;;;21.03;70.76;99854.94;5014608;28;20164;-86
2022/08/04 04:22:20;;;;;;;3.30;1.10;;;;;;;21.02;70.79;99858.91;4934574;29;20036;-86
2022/08/04 04:25:04;;;;;;;4.70;1.23;;;;;;;20.77;71.85;99858.34;5013695;28;20380;-87
2022/08/04 04:27:57;;;;;;;3.22;1.40;;;;;;;21.05;70.98;99857.28;4997038;28;20033;-87
2022/08/04 04:30:41;;;;;;;4.78;1.90;;;;;;;20.99;71.26;99854.94;5013582;28;20484;-85
2022/08/04 04:33:44;;;;;;;3.28;1.00;;;;;;;20.94;71.27;99858.19;5014259;28;20113;-87
2022/08/04 04:36:14;;;;;;;5.53;1.25;;;;;;;20.67;72.64;99863.59;5013961;28;20531;-87
2022/08/04 04:38:59;;;;;;;2.55;1.10;;;;;;;20.80;72.03;99855.53;5013710;28;20073;-86
2022/08/04 04:41:42;;;;;;;3.00;1.15;;;;;;;20.83;71.83;99860.28;5013934;28;20057;-85
2022/08/04 04:44:13;;;;;;;3.63;1.52;;;;;;;21.02;71.05;99859.69;5013910;28;20101;-86
2022/08/04 04:46:53;;;;;;;3.92;1.10;;;;;;;21.12;70.52;99858.00;5014034;28;20471;-87
2022/08/04 04:50:14;;;;;;;4.20;1.77;;;;;;;21.04;71.02;99856.50;4996895;28;20376;-87
2022/08/04 04:52:43;;;;;;;6.05;1.67;;;;;;;21.24;70.14;99859.44;4934885;29;20505;-84
2022/08/04 04:55:18;;;;;;;6.65;1.92;;;;;;;20.87;72.03;99857.47;5010480;28;20484;-88
2022/08/04 04:57:45;;;;;;;3.40;1.35;;;;;;;20.84;71.99;99866.59;5014789;28;20399;-87
2022/08/04 05:00:12;;;;;;;3.70;1.67;;;;;;;20.84;71.27;99858.31;5013592;28;20096;-87
2022/08/04 05:02:52;;;;;;;2.92;1.15;;;;;;;21.28;69.35;99868.53;5013669;28;20022;-85
2022/08/04 05:05:31;;;;;;;3.22;1.08;;;;;;;21.24;69.22;99868.56;5031559;28;20077;-86
2022/08/04 05:08:09;;;;;;;2.90;1.02;;;;;;;21.33;68.44;99862.53;5033460;28;20029;-87
2022/08/04 05:10:34;;;;;;;3.17;1.08;;;;;;;21.39;68.66;99865.63;5034304;28;20076;-86
2022/08/04 05:13:30;;;;;;;3.37;1.20;;;;;;;21.32;68.34;99864.50;5034270;28;20034;-86
2022/08/04 05:16:02;;;;;;;5.13;1.20;;;;;;;21.35;68.22;99864.91;5033876;28;20261;-85
2022/08/04 05:18:31;;;;;;;2.60;1.10;;;;;;;21.36;68.25;99860.94;5033965;28;20108;-86
2022/08/04 05:21:24;;;;;;;3.83;1.55;;;;;;;21.56;67.08;99851.56;5034350;28;20033;-86
2022/08/04 05:23:57;;;;;;;5.28;1.40;;;;;;;22.14;64.64;99855.13;5032968;28;20036;-85
2022/08/04 05:26:28;;;;;;;2.63;1.15;;;;;;;22.26;64.63;99859.31;5033911;28;20045;-86
2022/08/04 05:28:58;;;;;;;4.57;1.70;;;;;;;22.44;62.76;99851.50;5016305;28;20040;-86
2022/08/04 05:31:28;;;;;;;4.13;1.35;;;;;;;22.58;63.08;99861.56;5034372;28;20034;-86
2022/08/04 05:33:59;;;;;;;5.43;1.30;;;;;;;22.35;63.25;99850.47;5034935;28;20029;-86
2022/08/04 05:36:33;;;;;;;3.92;1.40;;;;;;;22.26;63.59;99859.31;5035716;28;20036;-86
2022/08/04 05:39:00;;;;;;;4.43;1.65;;;;;;;22.29;63.56;99864.00;5035009;28;20033;-87
2022/08/04 05:41:28;;;;;;;3.05;1.10;;;;;;;22.40;61.70;99861.09;5034905;28;20030;-87
2022/08/04 05:43:56;;;;;;;3.00;1.10;;;;;;;22.47;62.35;99861.75;5036427;28;20475;-87
2022/08/04 05:46:22;;;;;;;3.78;1.55;;;;;;;22.83;61.12;99855.59;5034930;28;20033;-88
2022/08/04 05:48:48;;;;;;;5.22;1.35;;;;;;;22.80;61.08;99856.41;5036248;28;20044;-86
2022/08/04 05:51:14;;;;;;;3.13;1.33;;;;;;;23.15;60.61;99857.00;5036662;28;20087;-87
2022/08/04 05:53:43;;;;;;;2.88;1.23;;;;;;;23.13;60.92;99854.66;5041294;28;20037;-87
2022/08/04 05:56:10;;;;;;;2.58;1.08;;;;;;;23.29;60.03;99854.72;5044211;28;20041;-86
2022/08/04 05:58:37;;;;;;;2.90;1.20;;;;;;;23.30;59.11;99855.50;5025837;28;20025;-87
2022/08/04 06:01:04;;;;;;;2.70;1.20;;;;;;;23.36;58.07;99854.59;5047212;28;20029;-86
2022/08/04 06:03:31;;;;;;;2.90;1.55;;;;;;;23.62;55.68;99850.09;5043721;28;20041;-89
2022/08/04 06:05:58;;;;;;;4.38;1.50;;;;;;;23.91;54.38;99855.84;5040259;28;20029;-89
2022/08/04 06:08:24;;;;;;;3.05;1.50;;;;;;;24.15;53.20;99850.13;5041386;28;20021;-86
2022/08/04 06:10:52;;;;;;;2.40;1.20;;;;;;;24.32;52.43;99850.94;5027885;28;20200;-92
2022/08/04 06:13:19;;;;;;;3.22;1.20;;;;;;;24.48;51.64;99854.50;5043630;28;20068;-90
2022/08/04 06:15:49;;;;;;;2.92;1.40;;;;;;;24.47;51.58;99852.16;5037878;28;20109;-85
2022/08/04 06:18:16;;;;;;;4.25;1.13;;;;;;;24.69;50.96;99846.81;5038573;28;20025;-87
2022/08/04 06:20:45;;;;;;;3.45;1.40;;;;;;;24.73;51.06;99847.53;5038122;28;20033;-88
2022/08/04 06:23:13;;;;;;;3.72;1.02;;;;;;;24.82;50.13;99845.69;5038654;28;20056;-90
2022/08/04 06:25:52;;;;;;;3.45;1.33;;;;;;;24.85;50.49;99836.44;5035735;28;20040;-83
2022/08/04 06:28:18;;;;;;;3.42;1.30;;;;;;;24.92;50.21;99848.63;5035514;28;20030;-90
2022/08/04 06:30:46;;;;;;;2.47;1.27;;;;;;;25.11;49.37;99842.16;5036710;28;20017;-86
2022/08/04 06:33:25;;;;;;;2.90;1.20;;;;;;;25.18;49.14;99844.72;5036305;28;20029;-86
2022/08/04 06:35:54;;;;;;;3.20;1.38;;;;;;;25.53;47.70;99837.38;5035209;28;20095;-86
2022/08/04 06:38:24;;;;;;;3.30;1.50;;;;;;;26.26;46.34;99845.91;5035422;28;20034;-87
2022/08/04 06:40:50;;;;;;;3.45;1.33;;;;;;;26.78;45.17;99850.97;5035233;28;20033;-85
2022/08/04 06:43:16;;;;;;;3.83;1.40;;;;;;;27.14;44.03;99841.34;5035020;28;20116;-88
2022/08/04 06:45:43;;;;;;;2.58;1.13;;;;;;;27.27;43.54;99840.06;5034796;28;20404;-88
2022/08/04 06:48:11;;;;;;;4.05;1.40;;;;;;;27.92;43.08;99846.03;5034629;28;20033;-85
2022/08/04 06:50:39;;;;;;;2.20;1.00;;;;;;;28.03;42.25;99835.97;5034966;28;20053;-83
2022/08/04 06:53:05;;;;;;;3.53;1.40;;;;;;;28.25;41.88;99838.69;5035509;28;20022;-86
2022/08/04 06:55:32;;;;;;;4.65;1.50;;;;;;;28.77;40.95;99842.56;5018731;28;20033;-87
2022/08/04 06:57:58;;;;;;;3.45;1.40;;;;;;;28.70;40.97;99840.03;5035575;28;20048;-87
2022/08/04 07:00:25;;;;;;;3.55;1.40;;;;;;;29.10;40.11;99836.34;5035103;28;20044;-84
2022/08/04 07:02:51;;;;;;;2.72;1.10;;;;;;;29.12;40.06;99843.03;5016520;28;20112;-87
2022/08/04 07:05:18;;;;;;;3.00;1.10;;;;;;;29.30;39.54;99831.81;5034755;28;20045;-89
2022/08/04 07:07:44;;;;;;;2.15;1.10;;;;;;;29.16;39.72;99829.63;5035204;28;20464;-86
2022/08/04 07:10:13;;;;;;;2.63;1.10;;;;;;;29.50;39.73;99834.13;5016847;28;20032;-83
2022/08/04 07:12:39;;;;;;;3.30;1.40;;;;;;;29.49;39.61;99826.19;5034698;28;20064;-86
2022/08/04 07:15:06;;;;;;;2.88;1.13;;;;;;;29.38;39.75;99823.84;5034454;28;20468;-86
2022/08/04 07:17:34;;;;;;;3.33;1.30;;;;;;;29.23;40.10;99825.75;5035666;28;20061;-88
2022/08/04 07:20:00;;;;;;;2.65;1.17;;;;;;;29.17;40.30;99828.38;5034844;28;20029;-85
2022/08/04 07:22:26;;;;;;;2.45;1.10;;;;;;;28.90;40.61;99828.44;5034255;28;20037;-87
2022/08/04 07:24:56;;;;;;;2.85;1.25;;;;;;;28.91;41.06;99830.75;5034174;28;20356;-86
2022/08/04 07:27:22;;;;;;;3.08;1.27;;;;;;;28.97;40.65;99837.28;5034161;28;20033;-86
2022/08/04 07:29:48;;;;;;;3.92;1.27;;;;;;;28.76;41.06;99833.38;5034061;28;20025;-86
2022/08/04 07:32:15;;;;;;;2.70;1.40;;;;;;;28.49;42.43;99832.53;5034308;28;20033;-85
2022/08/04 07:34:41;;;;;;;3.08;1.40;;;;;;;28.59;41.09;99839.72;5034090;28;20037;-85
2022/08/04 07:37:07;;;;;;;2.88;1.42;;;;;;;28.62;41.53;99836.78;5034394;28;20029;-83
2022/08/04 07:39:35;;;;;;;3.10;1.25;;;;;;;28.77;41.45;99843.31;5034044;28;20081;-83
2022/08/04 07:42:02;;;;;;;2.22;1.10;;;;;;;28.84;41.49;99839.44;5016089;28;20112;-83
2022/08/04 07:44:28;;;;;;;3.05;1.40;;;;;;;28.86;40.83;99838.97;5033699;28;20052;-82
2022/08/04 07:46:54;;;;;;;3.97;1.33;;;;;;;28.81;40.83;99837.56;5033309;28;20033;-84
2022/08/04 07:49:20;;;;;;;3.40;1.45;;;;;;;28.82;41.05;99844.72;5033799;28;20040;-83
2022/08/04 07:51:46;;;;;;;3.80;1.65;;;;;;;28.70;41.28;99835.22;5033405;28;20052;-82
2022/08/04 07:54:13;;;;;;;7.57;1.55;;;;;;;28.77;41.68;99848.16;5033534;28;20034;-81
2022/08/04 07:56:40;;;;;;;2.80;1.30;;;;;;;28.72;41.26;99841.16;5033250;28;20037;-82
2022/08/04 07:59:06;;;;;;;3.47;1.50;;;;;;;28.65;41.70;99843.47;5032841;28;20021;-81
2022/08/04 08:01:35;;;;;;;3.30;1.50;;;;;;;28.74;41.02;99843.50;5033194;28;20351;-82
2022/08/04 08:04:01;;;;;;;4.30;1.60;;;;;;;28.73;41.40;99841.94;5033289;28;20045;-82
2022/08/04 08:06:28;;;;;;;2.88;1.10;;;;;;;28.81;40.90;99837.56;5033017;28;20464;-81
2022/08/04 08:08:54;;;;;;;2.95;1.17;;;;;;;28.99;41.19;99843.19;5015550;28;20506;-82
2022/08/04 08:11:20;;;;;;;3.95;1.40;;;;;;;29.16;40.69;99849.25;5033815;28;20114;-82
2022/08/04 08:13:45;;;;;;;3.88;1.30;;;;;;;29.00;40.69;99847.56;5032933;28;20502;-82
2022/08/04 08:16:11;;;;;;;2.97;1.23;;;;;;;29.21;40.52;99837.41;5032994;28;20473;-80
2022/08/04 08:18:37;;;;;;;7.13;1.13;;;;;;;29.32;39.80;99848.16;5033419;28;20068;-82
2022/08/04 08:21:04;;;;;;;4.32;1.33;;;;;;;29.47;40.62;99843.50;5033374;28;20065;-82
2022/08/04 08:23:30;;;;;;;4.38;1.45;;;;;;;29.62;40.01;99846.41;5033311;28;20041;-82
2022/08/04 08:25:56;;;;;;;4.50;1.55;;;;;;;29.69;40.17;99848.09;5033037;28;20021;-83
2022/08/04 08:28:23;;;;;;;3.00;1.25;;;;;;;29.94;39.52;99842.09;5015590;28;20037;-82
2022/08/04 08:30:48;;;;;;;2.75;1.17;;;;;;;29.79;39.12;99835.59;5033098;28;20090;-82
2022/08/04 08:33:15;;;;;;;3.13;1.45;;;;;;;29.84;39.60;99840.56;5032545;28;20119;-83
2022/08/04 08:36:02;;;;;;;3.80;1.50;;;;;;;29.89;39.10;99839.91;5033008;28;20030;-82
2022/08/04 08:38:43;;;;;;;2.42;1.10;;;;;;;29.69;39.48;99839.69;5033407;28;20026;-82
2022/08/04 08:41:32;;;;;;;3.45;0.98;;;;;;;29.74;39.17;99837.03;5033086;28;20067;-81
2022/08/04 08:44:10;;;;;;;3.85;1.02;;;;;;;29.95;39.32;99836.00;5021884;28;20091;-81
2022/08/04 08:46:56;;;;;;;3.28;1.30;;;;;;;30.21;39.12;99835.59;5014876;28;20036;-82
2022/08/04 08:49:40;;;;;;;;;;;;;;;30.37;38.56;99835.19;5032881;28;20053;-82
2022/08/04 08:52:30;;;;;;;2.70;1.20;;;;;;;30.33;38.36;99839.44;5032869;28;19908;-84
2022/08/04 08:55:34;;;;;;;2.83;1.13;;;;;;;30.32;38.42;99838.66;5032789;28;20037;-83
2022/08/04 08:58:12;;;;;;;3.88;1.40;;;;;;;30.34;38.57;99844.56;5032881;28;20061;-82
2022/08/04 09:00:49;;;;;;;2.33;1.00;;;;;;;30.27;38.93;99835.72;5032373;28;20329;-83
2022/08/04 09:03:52;;;;;;;3.13;1.10;;;;;;;30.31;38.18;99831.47;5032387;28;20025;-82
2022/08/04 09:06:40;;;;;;;1.85;0.88;;;;;;;30.51;38.20;99840.09;5033409;28;20033;-82
2022/08/04 09:09:28;;;;;;;2.90;1.10;;;;;;;30.71;38.43;99835.91;5034665;28;20097;-82
2022/08/04 09:12:21;;;;;;;2.40;1.10;;;;;;;30.80;37.64;99833.84;5034661;28;20047;-83
2022/08/04 09:15:13;;;;;;;3.47;1.30;;;;;;;30.94;37.49;99839.97;5034834;28;20035;-84
2022/08/04 09:17:49;;;;;;;3.22;1.10;;;;;;;31.00;37.51;99836.00;5032575;28;20029;-83
2022/08/04 09:20:21;;;;;;;2.83;0.98;;;;;;;31.05;37.79;99835.31;5032325;28;20069;-82
2022/08/04 09:23:24;;;;;;;2.78;1.10;;;;;;;31.13;37.65;99846.97;5032640;28;20383;-82
2022/08/04 09:26:10;;;;;;;2.60;1.10;;;;;;;30.95;37.73;99839.50;5034596;28;20033;-83
2022/08/04 09:29:06;;;;;;;5.00;1.08;;;;;;;31.18;37.71;99846.34;5036015;28;20033;-81
2022/08/04 09:31:45;;;;;;;2.63;0.90;;;;;;;31.24;37.15;99838.78;5007650;28;20063;-84
2022/08/04 09:34:22;;;;;;;2.90;1.00;;;;;;;31.21;37.39;99844.59;5036502;28;20550;-82
2022/08/04 09:37:01;;;;;;;3.22;0.93;;;;;;;31.13;37.53;99847.75;5036331;28;20037;-84
2022/08/04 09:39:39;;;;;;;3.38;1.25;;;;;;;31.07;37.02;99851.72;5036215;28;20486;-86
2022/08/04 09:42:33;;;;;;;3.00;1.40;;;;;;;30.92;37.53;99859.34;5038151;28;20033;-83
2022/08/04 09:45:15;;;;;;;2.90;1.30;;;;;;;30.72;37.42;99860.72;5035609;28;20030;-84
2022/08/04 09:47:49;;;;;;;3.15;1.20;;;;;;;30.72;38.09;99868.38;5036516;28;20037;-84
2022/08/04 09:50:40;;;;;;;3.30;1.50;;;;;;;30.82;38.25;99855.84;5018378;28;20367;-84
2022/08/04 09:53:24;;;;;;;2.72;1.00;;;;;;;30.93;38.14;99860.91;5035951;28;20494;-84
2022/08/04 09:56:09;;;;;;;9.20;1.80;;;;;;;30.92;38.44;99859.34;5035708;28;20040;-84
2022/08/04 09:59:01;;;;;;;3.45;1.30;;;;;;;30.71;38.63;99869.66;5035665;28;20025;-83
2022/08/04 10:01:30;;;;;;;2.67;1.13;;;;;;;30.60;38.69;99861.75;5017916;28;20053;-82
2022/08/04 10:04:06;;;;;;;4.65;1.17;;;;;;;30.61;39.72;99868.91;5018068;28;20053;-82
2022/08/04 10:06:47;;;;;;;9.95;1.83;;;;;;;30.63;39.38;99872.06;5019109;28;20109;-83
2022/08/04 10:09:32;;;;;;;3.53;1.48;;;;;;;30.65;39.55;99871.56;5036046;28;20551;-84
2022/08/04 10:12:25;;;;;;;3.17;1.55;;;;;;;30.65;38.97;99869.53;5037259;28;20064;-83
2022/08/04 10:14:56;;;;;;;3.15;1.27;;;;;;;30.79;38.97;99866.00;5037634;28;20040;-83
2022/08/04 10:17:29;;;;;;;3.10;1.00;;;;;;;30.90;38.36;99867.47;5035815;28;20036;-82
2022/08/04 10:20:21;;;;;;;3.55;1.40;;;;;;;31.06;37.49;99867.03;5036126;28;20025;-83
2022/08/04 10:23:10;;;;;;;3.55;1.20;;;;;;;31.09;37.00;99877.34;5036344;28;20045;-84
2022/08/04 10:26:24;;;;;;;4.50;1.45;;;;;;;31.06;37.36;99873.44;5035457;28;20116;-82
2022/08/04 10:29:01;;;;;;;3.35;1.40;;;;;;;31.12;37.32;99882.00;5035632;28;20029;-83
2022/08/04 10:31:31;;;;;;;3.28;1.38;;;;;;;30.98;38.31;99883.50;5035337;28;20057;-83
2022/08/04 10:34:04;;;;;;;3.80;1.60;;;;;;;31.04;37.55;99887.19;5037178;28;20037;-83
2022/08/04 10:36:54;;;;;;;6.72;1.50;;;;;;;30.97;38.35;99879.13;5034280;28;20471;-84
2022/08/04 10:39:27;;;;;;;4.43;1.30;;;;;;;30.91;38.17;99877.47;5035247;28;20441;-84
2022/08/04 10:42:08;;;;;;;5.97;1.77;;;;;;;30.94;38.20;99887.75;5034882;28;20030;-83
2022/08/04 10:45:02;;;;;;;3.78;1.52;;;;;;;30.94;38.95;99879.34;5035288;28;20163;-84
2022/08/04 10:47:36;;;;;;;3.95;1.40;;;;;;;31.02;39.08;99883.31;5034831;28;20155;-84
2022/08/04 10:50:04;;;;;;;3.72;1.48;;;;;;;31.05;38.69;99888.75;5034662;28;20056;-83
2022/08/04 10:52:37;;;;;;;4.45;1.70;;;;;;;30.96;38.83;99880.41;5034624;28;20036;-83
2022/08/04 10:55:37;;;;;;;3.58;1.73;;;;;;;30.93;39.27;99884.19;5034554;28;20069;-84
2022/08/04 10:58:11;;;;;;;6.82;1.52;;;;;;;30.98;39.39;99889.13;5034300;28;20060;-83
2022/08/04 11:00:40;;;;;;;4.78;1.45;;;;;;;31.06;38.98;99895.16;5034498;28;20040;-83
2022/08/04 11:03:25;;;;;;;3.97;1.52;;;;;;;31.12;38.36;99893.25;5036151;28;20037;-83
2022/08/04 11:05:56;;;;;;;4.72;1.70;;;;;;;31.12;38.72;99898.84;5036979;28;20045;-83
2022/08/04 11:08:50;;;;;;;3.55;1.55;;;;;;;31.12;38.49;99894.00;5034522;28;20468;-83
2022/08/04 11:11:40;;;;;;;4.15;1.50;;;;;;;31.21;38.33;99895.22;5035816;28;20084;-83
2022/08/04 11:14:07;;;;;;;3.92;1.40;;;;;;;31.51;37.18;99896.03;5036332;28;20037;-82
2022/08/04 11:16:43;;;;;;;5.05;1.60;;;;;;;31.56;37.39;99889.72;5016648;28;20468;-81
2022/08/04 11:19:24;;;;;;;6.25;1.50;;;;;;;31.56;37.91;99900.97;5034813;28;20032;-82
2022/08/04 11:21:56;;;;;;;3.58;1.48;;;;;;;31.84;38.17;99899.47;5035374;28;20034;-81
2022/08/04 11:24:35;;;;;;;4.55;1.65;;;;;;;31.95;37.47;99891.22;5035236;28;20072;-82
2022/08/04 11:27:05;;;;;;;3.75;1.10;;;;;;;31.87;38.22;99890.03;5034449;28;20034;-82
2022/08/04 11:29:41;;;;;;;4.28;1.30;;;;;;;31.79;37.01;99900.16;5034429;28;20072;-81
2022/08/04 11:32:12;;;;;;;4.65;1.40;;;;;;;31.88;37.01;99905.66;5033948;28;20029;-82
2022/08/04 11:34:45;;;;;;;4.25;1.60;;;;;;;31.86;36.75;99904.59;5034647;28;20033;-81
2022/08/04 11:37:41;;;;;;;3.58;1.60;;;;;;;31.69;37.57;99915.53;5034991;28;20061;-83
2022/08/04 11:40:12;;;;;;;4.88;1.90;;;;;;;31.66;37.59;99920.09;5016616;28;20103;-84
2022/08/04 11:42:59;;;;;;;5.45;1.60;;;;;;;31.59;36.72;99916.91;5033794;28;20036;-84
2022/08/04 11:45:36;;;;;;;2.33;0.95;;;;;;;31.50;36.73;99917.00;5036165;28;20025;-86
2022/08/04 11:48:12;;;;;;;2.40;1.08;;;;;;;31.22;37.21;99925.66;5035626;28;20495;-88
2022/08/04 11:50:48;;;;;;;2.63;1.10;;;;;;;31.03;37.50;99924.22;5037477;28;20511;-87
2022/08/04 11:53:18;;;;;;;4.13;1.13;;;;;;;30.92;37.84;99936.03;5037373;28;20061;-87
2022/08/04 11:55:47;;;;;;;2.72;1.10;;;;;;;30.79;37.74;99927.06;5038151;28;20040;-88
2022/08/04 11:58:13;;;;;;;2.60;1.20;;;;;;;30.75;37.73;99932.88;5038558;28;20030;-87
2022/08/04 12:00:50;;;;;;;2.88;0.85;;;;;;;30.80;37.11;99931.41;5039494;28;20292;-88
2022/08/04 12:03:35;;;;;;;3.22;1.10;;;;;;;30.95;37.71;99942.72;5040143;28;20025;-89
2022/08/04 12:06:31;;;;;;;3.67;1.17;;;;;;;30.92;37.35;99940.88;5040538;28;20045;-87
2022/08/04 12:09:30;;;;;;;2.78;0.98;;;;;;;30.78;37.92;99945.19;5039165;28;20087;-87
2022/08/04 12:12:19;;;;;;;4.07;1.08;;;;;;;30.56;39.31;99953.84;5035487;28;20048;-88
2022/08/04 12:15:15;;;;;;;3.83;1.45;;;;;;;30.46;39.73;99949.53;5038735;28;20065;-88
2022/08/04 12:17:53;;;;;;;5.43;1.40;;;;;;;30.16;40.54;99942.94;5020653;28;20051;-88
2022/08/04 12:20:21;;;;;;;3.85;1.20;;;;;;;30.02;40.93;99943.56;5039515;28;20033;-87
2022/08/04 12:22:50;;;;;;;3.95;1.05;;;;;;;30.02;40.89;99938.72;5038645;28;20037;-86
2022/08/04 12:25:23;;;;;;;3.25;1.20;;;;;;;29.94;40.91;99932.69;5038417;28;20383;-88